Latest Weather Observations for Hindmarsh Island

IDS60901

Issued at 10:05 pm CST Wednesday 20 August 2014 (issued every 10 minutes, with the page automatically refreshed every 10 minutes)

About weather observations | Map of Adelaide area stations | Latest observations for Adelaide area | Other Formats
Station Details ID: 023894 Name: HINDMARSH ISLAND AWS Lat: -35.52 Lon: 138.82 Height: 11.0 m
Data from the previous 72 hours. | See also: Recent months at Hindmarsh Island
Date/Time
CST
Tmp

°C
App
Tmp
°C
Dew
Point
°C
Rel
Hum
%
Delta-T

°C
Wind Press
QNH
hPa
Press
MSL
hPa
Rain
since
9 am
mm
Dir
 
Spd
km/h
Gust
km/h
Spd
kts
Gust
kts
20/10:00pm 7.0 2.9 4.1 82 1.2 E 15 15 8 8 1027.8 - 0.0
20/09:30pm 7.0 2.8 4.0 81 1.3 E 15 17 8 9 1027.8 - 0.0
20/09:00pm 7.6 3.5 4.2 79 1.5 E 15 17 8 9 1027.9 1027.9 0.0
20/08:30pm 7.4 3.2 3.6 77 1.6 E 15 17 8 9 1027.8 - 0.0
20/08:00pm 7.8 4.0 3.8 76 1.7 E 13 15 7 8 1027.8 - 0.0
20/07:30pm 7.8 3.6 3.7 75 1.8 E 15 17 8 9 1027.6 - 0.0
20/07:00pm 8.3 4.4 3.4 71 2.1 E 13 15 7 8 1027.5 - 0.0
20/06:30pm 8.9 5.0 3.5 69 2.3 E 13 15 7 8 1027.4 - 0.0
20/06:00pm 10.3 5.7 3.8 64 2.8 SE 17 20 9 11 1027.1 1027.1 0.0
20/05:30pm 11.1 6.3 4.6 64 2.9 SE 19 22 10 12 1026.9 - 0.0
20/05:00pm 11.6 7.4 3.9 59 3.4 SSE 15 20 8 11 1026.8 - 0.0
20/04:30pm 11.9 7.9 2.6 53 4.0 SSE 13 17 7 9 1026.9 - 0.0
20/04:00pm 12.1 7.4 3.1 54 4.0 SSE 17 20 9 11 1026.9 - 0.0
20/03:30pm 12.0 6.5 4.2 59 3.5 SE 22 26 12 14 1026.9 - 0.0
20/03:00pm 11.4 6.4 3.7 59 3.4 SSE 19 22 10 12 1026.9 1026.9 0.0
20/02:30pm 13.0 9.2 3.9 54 4.1 SE 13 15 7 8 1026.9 - 0.0
20/02:00pm 12.6 8.4 3.8 55 4.0 S 15 20 8 11 1026.9 - 0.0
20/01:30pm 12.4 7.4 3.6 55 3.9 S 19 22 10 12 1027.0 - 0.0
20/01:00pm 12.5 9.2 2.7 51 4.3 SE 9 13 5 7 1027.3 - 0.0
20/12:30pm 12.1 7.7 2.8 53 4.1 SE 15 19 8 10 1027.6 - 0.0
20/12:00pm 12.0 7.3 3.0 54 3.9 ESE 17 24 9 13 1028.0 1028.0 0.0
20/11:30am 11.9 6.8 2.9 54 3.9 ESE 19 24 10 13 1028.3 - 0.0
20/11:00am 12.4 7.9 4.4 58 3.6 E 17 24 9 13 1028.6 - 0.0
20/10:30am 11.6 6.5 4.3 61 3.3 ENE 20 26 11 14 1028.7 - 0.0
20/10:00am 11.3 6.4 5.0 65 2.9 ENE 20 24 11 13 1028.8 - 0.0
20/09:30am 10.7 7.3 6.1 73 2.1 NNE 13 17 7 9 1028.6 - 0.0
20/09:00am 9.9 6.5 5.7 75 1.9 NNE 13 17 7 9 1028.5 1028.5 0.0
20/08:30am 9.5 6.1 5.9 78 1.7 NNE 13 15 7 8 1028.4 - 0.0
20/08:00am 9.0 6.0 5.9 81 1.4 NNE 11 15 6 8 1028.1 - 0.0
20/07:30am 8.5 5.9 6.0 84 1.1 ENE 9 13 5 7 1027.9 - 0.0
20/07:00am 8.4 5.0 5.9 84 1.1 ENE 13 15 7 8 1027.7 - 0.0
20/06:30am 8.2 5.2 5.8 85 1.1 NE 11 13 6 7 1027.4 - 0.0
20/06:00am 7.9 4.0 5.4 84 1.1 E 15 17 8 9 1027.1 1027.1 0.0
20/05:30am 7.5 3.1 4.5 81 1.3 E 17 19 9 10 1026.9 - 0.0
20/05:00am 7.7 3.4 3.4 74 1.8 ENE 15 20 8 11 1026.6 - 0.0
20/04:30am 8.3 4.4 3.6 72 2.0 ENE 13 15 7 8 1026.4 - 0.0
20/04:00am 7.9 4.0 3.2 72 2.0 E 13 13 7 7 1026.2 - 0.0
20/03:30am 8.6 4.4 3.8 72 2.1 E 15 17 8 9 1026.1 - 0.0
20/03:00am 10.0 6.4 5.2 72 2.2 E 13 17 7 9 1026.1 1026.1 0.0
20/02:30am 9.9 6.7 5.1 72 2.2 E 11 15 6 8 1026.3 - 0.0
20/02:00am 9.9 6.3 4.9 71 2.2 E 13 15 7 8 1026.4 - 0.0
20/01:30am 10.2 6.1 4.6 68 2.5 E 15 19 8 10 1026.3 - 0.0
20/01:00am 11.3 7.6 6.4 72 2.3 SSE 15 19 8 10 1026.4 - 0.0
20/12:30am 11.4 7.4 6.7 73 2.2 SSE 17 20 9 11 1026.5 - 0.0
20/12:00am 11.3 6.7 6.4 72 2.3 S 20 24 11 13 1026.5 1026.5 0.0
 
Date/Time
CST
Tmp

°C
App
Tmp
°C
Dew
Point
°C
Rel
Hum
%
Delta-T

°C
Wind Press
QNH
hPa
Press
MSL
hPa
Rain
since
9 am
mm
Dir
 
Spd
km/h
Gust
km/h
Spd
kts
Gust
kts
19/11:30pm 11.7 6.6 6.0 68 2.7 SE 22 30 12 16 1026.4 - 0.0
19/11:00pm 11.6 6.1 5.9 68 2.7 SE 24 28 13 15 1026.4 - 0.0
19/10:30pm 11.7 6.0 6.6 71 2.4 SE 26 30 14 16 1026.6 - 0.0
19/10:00pm 11.9 6.3 7.2 73 2.3 SE 26 32 14 17 1026.7 - 0.0
19/09:30pm 12.2 7.5 6.0 66 2.9 SE 20 24 11 13 1026.8 - 0.0
19/09:00pm 12.2 7.6 6.3 67 2.8 SE 20 24 11 13 1026.8 1026.8 0.0
19/08:30pm 12.2 6.9 6.7 69 2.6 SE 24 28 13 15 1026.7 - 0.0
19/08:00pm 12.0 7.3 6.1 67 2.8 SSE 20 26 11 14 1026.7 - 0.0
19/07:30pm 12.2 6.4 6.3 67 2.8 SSE 26 32 14 17 1026.5 - 0.0
19/07:00pm 12.1 6.9 5.7 65 3.0 S 22 28 12 15 1026.4 - 0.0
19/06:30pm 11.7 6.8 5.1 64 3.0 SSE 20 26 11 14 1026.2 - 0.0
19/06:00pm 11.5 6.3 3.5 58 3.5 SSE 20 24 11 13 1026.0 1026.0 0.0
19/05:30pm 11.7 6.7 4.7 62 3.2 S 20 26 11 14 1025.7 - 0.0
19/05:00pm 12.0 5.7 3.8 57 3.7 S 26 33 14 18 1025.5 - 0.0
19/04:30pm 12.4 7.2 5.6 63 3.2 S 22 24 12 13 1025.4 - 0.0
19/04:00pm 12.9 7.9 4.6 57 3.8 S 20 24 11 13 1025.3 - 0.0
19/03:30pm 13.0 8.5 4.4 56 3.9 S 17 24 9 13 1025.4 - 0.0
19/03:00pm 12.4 7.1 4.9 60 3.4 S 22 26 12 14 1025.4 1025.4 0.0
19/02:30pm 13.2 9.9 6.5 64 3.2 SSW 13 17 7 9 1025.5 - 0.0
19/02:00pm 13.3 10.0 6.4 63 3.3 SSW 13 19 7 10 1025.4 - 0.0
19/01:30pm 13.3 10.0 6.2 62 3.4 S 13 17 7 9 1025.5 - 0.0
19/01:00pm 12.8 10.6 6.4 65 3.0 S 7 11 4 6 1025.8 - 0.0
19/12:30pm 12.4 10.3 6.7 68 2.7 SE 7 11 4 6 1026.1 - 0.0
19/12:00pm 10.6 7.7 8.0 84 1.3 E 13 22 7 12 1026.7 1026.7 0.0
19/11:30am 12.0 7.4 6.7 70 2.5 S 20 35 11 19 1026.7 - 0.0
19/11:00am 12.7 9.7 6.1 64 3.1 SE 11 15 6 8 1026.8 - 0.0
19/10:30am 12.0 8.9 5.6 65 3.0 SE 11 15 6 8 1026.9 - 0.0
19/10:00am 11.1 6.3 5.8 70 2.5 ESE 20 28 11 15 1027.0 - 0.0
19/09:30am 10.7 6.2 7.0 78 1.8 ESE 20 28 11 15 1026.9 - 0.0
19/09:00am 10.3 8.5 7.0 80 1.5 NE 6 7 3 4 1026.9 1026.9 0.4
19/08:30am 9.9 9.0 6.1 77 1.8 CALM 0 6 0 3 1026.7 - 0.4
19/08:00am 9.5 7.5 6.9 84 1.2 NE 7 9 4 5 1026.5 - 0.4
19/07:30am 8.6 6.0 6.2 85 1.1 NE 9 11 5 6 1026.2 - 0.4
19/07:00am 9.3 4.9 6.7 84 1.2 ESE 19 22 10 12 1026.1 - 0.4
19/06:30am 9.5 5.8 6.2 80 1.5 ESE 15 20 8 11 1025.8 - 0.2
19/06:00am 9.5 6.1 6.0 79 1.6 ESE 13 15 7 8 1025.5 1025.5 0.2
19/05:30am 9.1 5.6 5.3 77 1.7 E 13 15 7 8 1025.2 - 0.2
19/05:00am 10.1 3.6 4.9 70 2.3 SE 28 35 15 19 1024.8 - 0.2
19/04:30am 10.3 3.4 6.6 78 1.7 SE 32 35 17 19 1024.8 - 0.2
19/04:23am 10.5 4.4 6.5 76 1.9 ESE 28 35 15 19 1024.7 - 0.2
19/04:00am 9.3 6.6 5.5 77 1.7 E 9 15 5 8 1024.8 - 0.2
19/03:30am 9.8 7.0 5.2 73 2.1 NE 9 11 5 6 1025.0 - 0.2
19/03:00am 10.4 8.1 5.6 72 2.2 S 7 15 4 8 1025.0 1025.0 0.2
19/02:30am 10.8 6.4 6.6 75 2.0 SSE 19 22 10 12 1025.1 - 0.2
19/02:00am 10.5 9.7 6.3 75 2.0 CALM 0 0 0 0 1025.2 - 0.2
19/01:30am 10.3 8.1 6.1 75 1.9 ENE 7 9 4 5 1025.2 - 0.2
19/01:00am 10.5 7.9 6.3 75 2.0 ESE 9 13 5 7 1025.3 - 0.2
19/12:30am 10.7 6.9 5.9 72 2.2 ESE 15 19 8 10 1025.2 - 0.2
19/12:00am 11.6 5.7 5.7 67 2.7 ESE 26 35 14 19 1025.3 1025.3 0.2
 
Date/Time
CST
Tmp

°C
App
Tmp
°C
Dew
Point
°C
Rel
Hum
%
Delta-T

°C
Wind Press
QNH
hPa
Press
MSL
hPa
Rain
since
9 am
mm
Dir
 
Spd
km/h
Gust
km/h
Spd
kts
Gust
kts
18/11:30pm 11.9 6.0 3.9 58 3.6 SSE 24 30 13 16 1025.3 - 0.2
18/11:00pm 11.9 7.0 3.9 58 3.6 S 19 22 10 12 1025.5 - 0.2
18/10:30pm 11.5 7.0 4.3 61 3.2 S 17 20 9 11 1025.6 - 0.2
18/10:00pm 11.1 6.1 3.4 59 3.4 S 19 24 10 13 1025.5 - 0.2
18/09:30pm 11.0 6.1 4.0 62 3.1 SSE 19 22 10 12 1025.5 - 0.2
18/09:00pm 11.7 6.0 4.7 62 3.2 SSE 24 28 13 15 1025.5 1025.5 0.2
18/08:30pm 11.7 6.8 4.2 60 3.4 SSE 19 20 10 11 1025.3 - 0.2
18/08:00pm 11.3 6.9 4.5 63 3.1 SSE 17 20 9 11 1025.3 - 0.2
18/07:30pm 11.5 6.4 4.3 61 3.2 SSE 20 24 11 13 1025.0 - 0.2
18/07:00pm 10.8 6.8 5.1 68 2.6 S 15 20 8 11 1024.7 - 0.2
18/06:30pm 11.2 7.6 6.7 74 2.1 S 15 19 8 10 1024.4 - 0.2
18/06:00pm 11.0 7.7 6.6 74 2.1 S 13 15 7 8 1024.1 1024.1 0.2
18/05:30pm 11.2 7.5 6.1 71 2.4 S 15 15 8 8 1023.9 - 0.2
18/05:00pm 11.6 7.9 6.3 70 2.5 S 15 17 8 9 1023.8 - 0.2
18/04:30pm 12.1 8.5 6.8 70 2.5 S 15 19 8 10 1023.5 - 0.2
18/04:00pm 12.4 8.0 6.5 67 2.8 S 19 22 10 12 1023.4 - 0.2
18/03:30pm 13.3 9.0 6.9 65 3.1 S 19 26 10 14 1023.4 - 0.2
18/03:00pm 13.2 9.2 6.8 65 3.1 S 17 20 9 11 1023.4 1023.3 0.2
18/02:30pm 13.0 9.5 7.0 67 2.9 S 15 20 8 11 1023.4 - 0.2
18/02:00pm 12.9 9.1 7.4 69 2.7 S 17 22 9 12 1023.4 - 0.2
18/01:30pm 12.7 8.7 6.7 67 2.9 SSE 17 20 9 11 1023.3 - 0.2
18/01:00pm 12.5 8.4 6.1 65 3.0 SSE 17 22 9 12 1023.6 - 0.0
18/12:30pm 12.8 8.6 5.5 61 3.4 SE 17 20 9 11 1023.9 - 0.0
18/12:00pm 13.2 9.9 6.5 64 3.2 ESE 13 20 7 11 1024.3 1024.4 0.0
18/11:30am 12.5 9.2 6.5 67 2.9 SE 13 20 7 11 1024.7 - 0.0
18/11:00am 12.3 9.2 7.2 71 2.5 ESE 13 19 7 10 1025.0 - 0.0
18/10:30am 12.0 10.0 8.7 80 1.6 E 9 13 5 7 1025.2 - 0.0
18/10:00am 11.1 8.2 8.0 81 1.5 E 13 17 7 9 1025.2 - 0.0
18/09:30am 10.9 9.3 8.8 87 1.0 NNE 7 11 4 6 1025.0 - 0.0
18/09:00am 10.6 8.6 8.7 88 0.9 NNE 9 13 5 7 1024.9 1024.9 1.4
18/08:30am 10.7 8.7 8.8 88 0.9 NNE 9 13 5 7 1024.6 - 1.4
18/08:00am 9.9 7.7 7.8 87 1.0 NE 9 15 5 8 1024.4 - 1.4
18/07:30am 10.0 7.0 7.8 86 1.1 ENE 13 15 7 8 1024.2 - 1.2
18/07:00am 10.9 7.2 8.1 83 1.4 S 17 20 9 11 1023.9 - 1.2
18/06:30am 10.5 6.7 7.6 82 1.4 S 17 20 9 11 1023.6 - 1.2
18/06:00am 10.7 6.0 7.9 83 1.3 S 22 28 12 15 1023.2 1023.2 1.2
18/05:30am 10.7 6.2 8.6 87 1.0 S 22 26 12 14 1023.0 - 1.2
18/05:00am 10.4 6.3 8.7 89 0.8 S 20 26 11 14 1022.9 - 1.0
18/04:30am 9.3 7.1 7.7 90 0.8 W 9 11 5 6 1022.7 - 1.0
18/04:00am 9.5 7.7 7.8 89 0.8 WNW 7 11 4 6 1022.7 - 1.0
18/03:30am 9.6 8.0 7.9 89 0.8 WSW 6 7 3 4 1022.8 - 1.0
18/03:00am 10.0 9.6 8.1 88 0.9 CALM 0 6 0 3 1022.9 1022.9 1.0
18/02:30am 10.4 10.1 8.5 88 0.9 CALM 0 6 0 3 1023.1 - 1.0
18/02:00am 10.2 9.8 8.3 88 0.9 CALM 0 0 0 0 1023.5 - 1.0
18/01:30am 9.9 8.1 8.0 88 0.9 E 7 7 4 4 1023.5 - 1.0
18/01:00am 11.0 8.3 9.1 88 0.9 S 13 15 7 8 1023.4 - 1.0
18/12:30am 10.9 7.5 9.0 88 0.9 S 17 20 9 11 1023.5 - 1.0
18/12:00am 10.6 7.1 8.9 89 0.8 S 17 22 9 12 1023.5 1023.5 1.0
 
Date/Time
CST
Tmp

°C
App
Tmp
°C
Dew
Point
°C
Rel
Hum
%
Delta-T

°C
Wind Press
QNH
hPa
Press
MSL
hPa
Rain
since
9 am
mm
Dir
 
Spd
km/h
Gust
km/h
Spd
kts
Gust
kts
17/11:30pm 11.0 6.3 9.1 88 0.9 S 24 32 13 17 1023.4 - 0.8
17/11:00pm 10.9 7.1 9.0 88 0.9 SSW 19 22 10 12 1023.5 - 0.8
17/10:30pm 10.7 6.3 8.8 88 0.9 S 22 28 12 15 1023.6 - 0.8

Latest Capital City Observations: Canberra | Sydney | Melbourne | Brisbane | Adelaide | Perth | Hobart | Darwin

Other Formats:

Comma delimited format used in spreadsheet applications
http://www.bom.gov.au/fwo/IDS60901/IDS60901.94677.axf

JavaScript Object Notation format (JSON) in row-major order
http://www.bom.gov.au/fwo/IDS60901/IDS60901.94677.json